Time;durP1;ratioP1;P1;durP2;ratioP2;P2;SDS_P1;SDS_P2;PMS_P1;PMS_P2;Temp;Humidity;BMP_temperature;BMP_pressure;BME280_temperature;BME280_humidity;BME280_pressure;Samples;Min_cycle;Max_cycle;Signal;HPM_P1;HPM_P2
2024/02/11 09:44:04;;;;;;;9.27;6.97;;;;;;;8.20;100.00;96546.16;5141659;27;20567;-85
2024/02/11 09:46:34;;;;;;;8.13;5.97;;;;;;;8.77;100.00;96552.44;5124362;27;38732;-86
2024/02/11 09:49:05;;;;;;;7.30;5.60;;;;;;;9.23;100.00;96564.84;5090395;28;42450;-85
2024/02/11 09:51:35;;;;;;;7.53;5.53;;;;;;;9.54;100.00;96557.47;5090564;28;42993;-85
2024/02/11 09:54:04;;;;;;;10.23;5.80;;;;;;;9.51;100.00;96507.59;5107472;28;42653;-87
2024/02/11 09:56:32;;;;;;;6.90;4.70;;;;;;;10.09;100.00;96557.47;5090309;28;38804;-84
2024/02/11 09:59:00;;;;;;;6.70;5.30;;;;;;;9.96;100.00;96512.06;5090752;28;41801;-86
2024/02/11 10:01:32;;;;;;;6.60;4.80;;;;;;;10.23;100.00;96540.31;5090919;28;41894;-88
2024/02/11 10:04:04;;;;;;;7.10;4.67;;;;;;;10.53;100.00;96574.31;5091653;28;43779;-85
2024/02/11 10:06:36;;;;;;;5.13;4.37;;;;;;;10.60;100.00;96566.59;5091231;28;40316;-87
2024/02/11 10:09:04;;;;;;;4.93;4.30;;;;;;;10.63;100.00;96563.66;5091506;28;42099;-86
2024/02/11 10:11:32;;;;;;;7.17;4.33;;;;;;;10.55;100.00;96542.41;5091112;28;43147;-86
2024/02/11 10:14:00;;;;;;;4.83;3.77;;;;;;;10.81;100.00;96580.34;5090466;28;43509;-85
2024/02/11 10:16:30;;;;;;;5.60;3.73;;;;;;;10.76;100.00;96569.38;5089063;28;39690;-85
2024/02/11 10:18:59;;;;;;;4.60;3.57;;;;;;;10.73;100.00;96577.66;5090004;28;42721;-86
2024/02/11 10:21:27;;;;;;;7.60;4.37;;;;;;;10.60;100.00;96558.66;5107140;28;43152;-86
2024/02/11 10:23:55;;;;;;;5.47;4.40;;;;;;;10.66;100.00;96573.94;5090311;28;42526;-85
2024/02/11 10:26:23;;;;;;;5.30;3.73;;;;;;;10.76;100.00;96587.91;5107161;28;40153;-86
2024/02/11 10:29:09;;;;;;;4.80;4.30;;;;;;;10.78;100.00;96599.19;5092909;28;41843;-85
2024/02/11 10:31:38;;;;;;;6.97;4.00;;;;;;;10.67;100.00;96580.88;5106833;28;43762;-85
2024/02/11 10:34:08;;;;;;;6.47;4.87;;;;;;;10.69;100.00;96584.22;5124266;27;42649;-86
2024/02/11 10:36:37;;;;;;;5.83;4.57;;;;;;;10.78;100.00;96601.81;5089937;28;39861;-87
2024/02/11 10:39:05;;;;;;;6.13;4.27;;;;;;;10.71;100.00;96587.56;5089732;28;42838;-87
2024/02/11 10:41:34;;;;;;;6.00;4.07;;;;;;;10.76;100.00;96587.91;5089721;28;41673;-87
2024/02/11 10:44:04;;;;;;;5.57;4.57;;;;;;;10.93;100.00;96610.91;5089840;28;40883;-86
2024/02/11 10:46:33;;;;;;;5.07;4.20;;;;;;;10.86;100.00;96596.63;5089699;28;40045;-87
2024/02/11 10:49:03;;;;;;;5.67;4.10;;;;;;;10.94;100.00;96614.38;5090147;28;40944;-87
2024/02/11 10:51:33;;;;;;;5.93;4.23;;;;;;;11.00;100.00;96611.94;5089803;28;43371;-86
2024/02/11 10:54:02;;;;;;;5.47;4.27;;;;;;;11.08;100.00;96611.19;5083974;28;43460;-87
2024/02/11 10:56:31;;;;;;;6.43;4.43;;;;;;;11.13;100.00;96612.38;5075792;28;40511;-88
2024/02/11 10:59:08;;;;;;;5.70;3.73;;;;;;;11.20;100.00;96598.53;5075968;28;40947;-87
2024/02/11 11:01:38;;;;;;;5.63;4.07;;;;;;;11.37;100.00;96606.44;5090704;28;42710;-87
2024/02/11 11:04:09;;;;;;;5.60;4.40;;;;;;;11.39;100.00;96619.50;5077324;28;42365;-87
2024/02/11 11:06:38;;;;;;;5.40;4.47;;;;;;;11.30;100.00;96599.25;5077312;28;38796;-86
2024/02/11 11:09:06;;;;;;;4.97;3.93;;;;;;;11.43;100.00;96610.28;5077262;28;42617;-87
2024/02/11 11:11:34;;;;;;;5.17;3.80;;;;;;;11.45;100.00;96619.75;5077074;28;41677;-87
2024/02/11 11:14:08;;;;;;;5.27;3.73;;;;;;;11.47;100.00;96611.63;5077167;28;42627;-86
2024/02/11 11:16:41;;;;;;;3.90;3.50;;;;;;;11.51;100.00;96610.31;5076697;28;39229;-87
2024/02/11 11:19:12;;;;;;;5.27;4.33;;;;;;;11.50;100.00;96598.03;5077165;28;42026;-87
2024/02/11 11:21:50;;;;;;;5.33;3.97;;;;;;;11.51;100.00;96591.75;5076866;28;43346;-87
2024/02/11 11:24:19;;;;;;;4.50;3.70;;;;;;;11.53;100.00;96601.22;5077181;28;41181;-87
2024/02/11 11:26:50;;;;;;;3.90;3.50;;;;;;;11.51;100.00;96589.94;5076547;28;39023;-87
2024/02/11 11:29:19;;;;;;;5.60;3.70;;;;;;;11.53;100.00;96606.53;5076597;28;41371;-87
2024/02/11 11:31:47;;;;;;;5.53;3.60;;;;;;;11.57;100.00;96607.06;5074572;28;43109;-87
2024/02/11 11:34:16;;;;;;;5.77;3.90;;;;;;;11.50;100.00;96606.00;5075678;28;42818;-85
2024/02/11 11:36:44;;;;;;;3.57;3.20;;;;;;;11.42;100.00;96596.19;5075592;28;39354;-87
2024/02/11 11:39:13;;;;;;;4.23;3.00;;;;;;;11.42;100.00;96609.44;5075734;28;43007;-87
2024/02/11 11:41:44;;;;;;;4.53;3.33;;;;;;;11.43;100.00;96610.28;5074917;28;41718;-86
2024/02/11 11:44:12;;;;;;;3.97;2.87;;;;;;;11.40;100.00;96622.00;5075827;28;41244;-87
2024/02/11 11:46:39;;;;;;;3.80;3.37;;;;;;;11.49;100.00;96625.56;5075119;28;40395;-87
2024/02/11 11:49:07;;;;;;;5.47;3.90;;;;;;;11.38;100.00;96612.53;5075508;28;40859;-88
2024/02/11 11:51:36;;;;;;;3.40;3.07;;;;;;;11.28;100.00;96617.13;5075009;28;42002;-86
2024/02/11 11:54:06;;;;;;;3.97;2.73;;;;;;;11.19;100.00;96623.34;5075488;28;42136;-87
2024/02/11 11:56:33;;;;;;;3.67;2.97;;;;;;;11.19;100.00;96616.25;5075091;28;40575;-86
2024/02/11 11:59:05;;;;;;;5.17;2.87;;;;;;;11.18;100.00;96619.03;5075447;28;42132;-87
2024/02/11 12:01:33;;;;;;;3.70;2.97;;;;;;;11.22;100.00;96625.69;5075830;28;43239;-86
2024/02/11 12:04:00;;;;;;;3.87;3.03;;;;;;;11.14;100.00;96616.69;5093016;28;41317;-86
2024/02/11 12:06:28;;;;;;;3.17;2.87;;;;;;;11.11;100.00;96616.19;5075002;28;40347;-88
2024/02/11 12:08:57;;;;;;;4.43;2.73;;;;;;;10.95;100.00;96589.56;5076114;28;41517;-88
2024/02/11 12:11:25;;;;;;;2.83;2.53;;;;;;;11.16;100.00;96625.31;5076054;28;43466;-87
2024/02/11 12:13:52;;;;;;;3.87;2.73;;;;;;;11.10;100.00;96612.69;5075538;28;43196;-88
2024/02/11 12:16:22;;;;;;;3.13;2.53;;;;;;;11.10;99.80;96620.66;5074707;28;39416;-89
2024/02/11 12:18:49;;;;;;;3.33;2.87;;;;;;;11.19;99.19;96634.78;5074959;28;40100;-86
2024/02/11 12:21:20;;;;;;;2.57;2.37;;;;;;;11.06;99.91;96614.00;5074901;28;41706;-88
2024/02/11 12:23:47;;;;;;;2.90;2.30;;;;;;;11.20;98.96;96641.75;5074885;28;41252;-87
2024/02/11 12:26:23;;;;;;;4.70;2.80;;;;;;;11.10;98.77;96633.88;5075188;28;38988;-89
2024/02/11 12:28:51;;;;;;;3.87;2.73;;;;;;;11.18;99.67;96638.41;5074720;28;42033;-89
2024/02/11 12:31:20;;;;;;;3.30;2.40;;;;;;;11.21;99.28;96637.28;5074542;28;43141;-89
2024/02/11 12:33:50;;;;;;;3.07;2.77;;;;;;;11.25;99.51;96639.44;5075046;28;41180;-90
2024/02/11 12:36:21;;;;;;;2.63;2.30;;;;;;;11.29;99.25;96630.22;5075111;28;40253;-90
2024/02/11 12:38:51;;;;;;;2.87;2.30;;;;;;;11.34;99.09;96621.81;5074979;28;40704;-90
2024/02/11 12:41:24;;;;;;;4.83;2.20;;;;;;;11.46;98.47;96633.81;5075059;28;41948;-89
2024/02/11 12:43:54;;;;;;;3.37;2.20;;;;;;;11.53;97.77;96633.03;5074506;28;43692;-88
2024/02/11 12:46:22;;;;;;;3.33;2.67;;;;;;;11.57;97.36;96638.03;5074488;28;38854;-90
2024/02/11 12:48:49;;;;;;;3.60;2.40;;;;;;;11.52;97.78;96630.53;5074545;28;40849;-88
2024/02/11 12:51:19;;;;;;;2.80;2.47;;;;;;;11.59;98.38;96631.59;5091721;28;41682;-88
2024/02/11 12:53:48;;;;;;;2.70;2.13;;;;;;;11.69;96.64;96636.78;5074234;28;41214;-87
2024/02/11 12:56:18;;;;;;;2.47;2.27;;;;;;;11.57;95.86;96593.78;5074448;28;39090;-89
2024/02/11 12:58:48;;;;;;;3.33;2.27;;;;;;;12.02;95.81;96651.06;5074319;28;43008;-89
2024/02/11 13:01:16;;;;;;;2.70;2.00;;;;;;;12.03;94.87;96642.13;5075116;28;42703;-89
2024/02/11 13:03:44;;;;;;;3.27;2.47;;;;;;;12.15;94.77;96656.75;5075386;28;41393;-89
2024/02/11 13:06:12;;;;;;;2.37;2.17;;;;;;;12.21;93.87;96650.81;5075819;28;40135;-89
2024/02/11 13:08:41;;;;;;;2.47;2.00;;;;;;;12.32;93.13;96658.50;5075436;28;41605;-90
2024/02/11 13:11:10;;;;;;;2.00;1.80;;;;;;;12.39;90.88;96640.91;5075696;28;41755;-89
2024/02/11 13:13:38;;;;;;;2.50;2.30;;;;;;;12.56;90.45;96650.59;5075480;28;42697;-89
2024/02/11 13:16:08;;;;;;;2.93;2.13;;;;;;;12.59;89.96;96636.19;5075250;28;40486;-89
2024/02/11 13:18:36;;;;;;;2.27;2.07;;;;;;;12.75;90.40;96646.81;5072784;28;41364;-89
2024/02/11 13:21:04;;;;;;;4.23;2.00;;;;;;;12.78;87.78;96643.84;5074913;28;42262;-89
2024/02/11 13:23:31;;;;;;;2.67;2.20;;;;;;;12.78;87.97;96650.97;5108103;28;42096;-89
2024/02/11 13:26:00;;;;;;;2.47;2.17;;;;;;;12.77;86.88;96654.63;5074870;28;40024;-88
2024/02/11 13:28:27;;;;;;;2.43;1.90;;;;;;;12.71;87.62;96658.78;5074187;28;40668;-89
2024/02/11 13:30:56;;;;;;;2.47;1.97;;;;;;;12.69;87.88;96662.59;5074296;28;42854;-88
2024/02/11 13:33:31;;;;;;;2.50;2.30;;;;;;;12.56;88.36;96655.91;5074246;28;42565;-90
2024/02/11 13:36:00;;;;;;;2.20;2.00;;;;;;;12.53;87.78;96672.16;5075239;28;39248;-89
2024/02/11 13:38:30;;;;;;;3.13;2.30;;;;;;;12.41;88.29;96668.13;5074111;28;40773;-87
2024/02/11 13:40:58;;;;;;;2.20;2.00;;;;;;;12.26;88.21;96664.44;5073989;28;43540;-89
2024/02/11 13:43:25;;;;;;;2.60;2.17;;;;;;;12.08;89.04;96631.88;5073488;28;40902;-88
2024/02/11 13:45:53;;;;;;;2.30;2.03;;;;;;;12.15;89.32;96652.28;5073894;28;40298;-88
2024/02/11 13:48:21;;;;;;;2.10;1.90;;;;;;;12.09;89.45;96649.44;5073593;28;41606;-89
2024/02/11 13:50:50;;;;;;;3.03;2.10;;;;;;;11.96;89.34;96657.84;5074190;28;42967;-88
2024/02/11 13:53:20;;;;;;;3.27;2.17;;;;;;;11.91;89.04;96661.94;5080805;28;41402;-89
2024/02/11 13:55:51;;;;;;;3.90;2.20;;;;;;;11.73;89.40;96633.66;5082325;28;38773;-88
2024/02/11 13:58:33;;;;;;;3.20;1.93;;;;;;;11.80;89.03;96673.66;5081829;28;40918;-88
2024/02/11 14:01:00;;;;;;;2.40;2.20;;;;;;;11.82;90.12;96684.94;5082655;28;41648;-88
2024/02/11 14:03:33;;;;;;;3.20;2.37;;;;;;;11.41;88.54;96628.13;5081694;28;41525;-88
2024/02/11 14:06:30;;;;;;;;;;;;;;;;;;;;;
2024/02/11 14:09:11;;;;;;;2.37;2.17;;;;;;;11.79;89.81;96686.09;5074998;28;42480;-89
2024/02/11 14:12:39;;;;;;;2.30;1.80;;;;;;;11.80;89.83;96677.13;5008070;28;43016;-89
2024/02/11 14:15:11;;;;;;;2.93;2.07;;;;;;;11.90;90.26;96681.50;4977397;28;42437;-88
2024/02/11 14:17:42;;;;;;;1.63;1.53;;;;;;;11.93;90.08;96681.19;5042836;28;39534;-89
2024/02/11 14:20:11;;;;;;;2.37;2.17;;;;;;;11.92;89.17;96682.19;5074353;28;43442;-89
2024/02/11 14:22:40;;;;;;;2.47;2.23;;;;;;;12.00;89.00;96680.38;5091147;28;41710;-90
2024/02/11 14:25:14;;;;;;;2.27;2.07;;;;;;;12.13;89.21;96695.88;5074303;28;42206;-89
2024/02/11 14:27:47;;;;;;;2.33;2.13;;;;;;;12.24;89.00;96695.59;5074599;28;39206;-88
2024/02/11 14:30:15;;;;;;;2.57;1.90;;;;;;;12.33;88.17;96699.13;5092171;28;40718;-89
2024/02/11 14:32:43;;;;;;;2.23;1.60;;;;;;;12.27;87.32;96687.31;5076304;28;41701;-89
2024/02/11 14:35:13;;;;;;;2.00;1.63;;;;;;;12.30;86.57;96694.97;5076287;28;44520;-89
2024/02/11 14:37:42;;;;;;;2.30;2.00;;;;;;;12.23;86.17;96688.66;5076512;28;40128;-89
2024/02/11 14:40:14;;;;;;;3.33;1.67;;;;;;;12.23;86.23;96707.22;5076569;28;40847;-89
2024/02/11 14:42:44;;;;;;;2.73;1.90;;;;;;;12.20;86.31;96699.56;5075897;28;42796;-89
2024/02/11 16:47:23;;;;;;;4.50;2.80;;;;;;;7.61;100.00;96803.47;5069411;27;20576;-89
2024/02/11 16:49:51;;;;;;;3.60;2.40;;;;;;;8.05;100.00;96805.81;5050586;28;38965;-89
2024/02/11 16:52:20;;;;;;;4.23;2.60;;;;;;;8.55;100.00;96825.25;5050789;28;40601;-89
2024/02/11 16:54:48;;;;;;;4.60;2.60;;;;;;;8.90;100.00;96823.97;5051041;28;43227;-90
2024/02/11 16:57:16;;;;;;;6.17;2.97;;;;;;;9.28;100.00;96850.44;5051893;28;43301;-90
2024/02/11 16:59:44;;;;;;;6.17;2.50;;;;;;;9.39;100.00;96841.56;5050721;28;40152;-89
2024/02/11 17:02:12;;;;;;;5.43;3.03;;;;;;;9.64;100.00;96856.84;5067959;28;41988;-89
